Terminal Aerodrome Forecast
Issued by NWS Sioux Falls, SD

Home | Current Version | Previous Version | Graphics & Text | Print | Product List | Glossary On
Versions: 1 2 3 4 5 6 7 8 9 10 11 12
000
FTUS43 KFSD 042325
TAFHON
TAF
KHON 042325Z 0500/0524 33008KT P6SM SKC
     FM050130 VRB03KT P6SM SKC
     FM051400 16008KT P6SM SKC
     FM051900 17013G19KT P6SM FEW150
     FM052330 16008KT P6SM FEW150=

USA.gov is the U.S. government's official web portal to all federal, state and local government web resources and services.